createdAt,value
2023-03-28T00:00:47.379Z,32.91
2023-03-28T00:01:47.393Z,40.59
2023-03-28T00:02:47.380Z,49.61
2023-03-28T00:03:47.412Z,55.30
2023-03-28T00:04:47.318Z,58.16
2023-03-28T00:05:47.419Z,50.16
2023-03-28T00:06:47.316Z,53.38
2023-03-28T00:07:47.452Z,53.19
2023-03-28T00:08:47.349Z,39.55
2023-03-28T00:09:47.273Z,51.38
2023-03-28T00:10:47.290Z,61.33
2023-03-28T00:11:47.247Z,46.40
2023-03-28T00:12:47.281Z,44.54
2023-03-28T00:13:47.269Z,51.37
2023-03-28T00:14:47.945Z,54.62
2023-03-28T00:15:47.231Z,50.80
2023-03-28T00:16:47.230Z,45.72
2023-03-28T00:17:47.248Z,53.33
2023-03-28T00:18:47.211Z,61.64
2023-03-28T00:19:47.219Z,48.22
2023-03-28T00:20:47.166Z,52.62
2023-03-28T00:21:47.226Z,52.24
2023-03-28T00:22:47.152Z,39.63
2023-03-28T00:23:47.149Z,47.61
2023-03-28T00:24:47.129Z,37.66
2023-03-28T00:25:47.131Z,40.08
2023-03-28T00:26:47.179Z,57.72
2023-03-28T00:27:47.089Z,57.55
2023-03-28T00:28:47.088Z,54.96
2023-03-28T00:29:47.119Z,62.41
2023-03-28T00:30:47.068Z,54.70
2023-03-28T00:31:47.111Z,35.93
2023-03-28T00:32:47.048Z,50.99
2023-03-28T00:33:47.091Z,47.85
2023-03-28T00:34:47.030Z,40.81
2023-03-28T00:35:47.954Z,40.92
2023-03-28T00:36:47.062Z,58.87
2023-03-28T00:37:46.996Z,62.20
2023-03-28T00:38:47.058Z,54.80
2023-03-28T00:39:47.007Z,63.50
2023-03-28T00:40:47.035Z,49.38
2023-03-28T00:41:47.040Z,46.36
2023-03-28T00:42:46.993Z,61.23
2023-03-28T00:43:46.983Z,55.73
2023-03-28T00:44:46.955Z,42.44
2023-03-28T00:46:02.507Z,53.93
2023-03-28T00:46:48.023Z,60.96
2023-03-28T00:47:47.559Z,55.22
2023-03-28T00:48:46.919Z,42.40
2023-03-28T00:49:46.923Z,56.45
2023-03-28T00:50:46.974Z,41.87
2023-03-28T00:51:47.007Z,53.06
2023-03-28T00:52:46.863Z,57.65
2023-03-28T00:53:46.852Z,57.56
2023-03-28T00:54:46.896Z,57.11
2023-03-28T00:55:46.817Z,54.95
2023-03-28T00:56:46.853Z,60.05
2023-03-28T00:57:46.828Z,60.57
2023-03-28T00:58:46.822Z,55.52
2023-03-28T00:59:46.815Z,59.58
2023-03-28T01:00:46.843Z,59.19
2023-03-28T01:01:46.886Z,54.03
2023-03-28T01:02:46.848Z,60.87
2023-03-28T01:03:46.820Z,62.76
2023-03-28T01:04:46.758Z,51.09
2023-03-28T01:05:47.412Z,53.14
2023-03-28T01:06:46.715Z,57.14
2023-03-28T01:07:46.732Z,57.29
2023-03-28T01:08:46.707Z,52.23
2023-03-28T01:09:46.747Z,53.12
2023-03-28T01:10:46.763Z,59.53
2023-03-28T01:11:46.693Z,49.10
2023-03-28T01:12:46.652Z,52.04
2023-03-28T01:13:47.672Z,60.94
2023-03-28T01:14:46.689Z,59.70
2023-03-28T01:15:46.665Z,61.54
2023-03-28T01:16:46.641Z,42.66
2023-03-28T01:17:46.668Z,35.03
2023-03-28T01:18:46.626Z,48.94
2023-03-28T01:19:46.594Z,58.82
2023-03-28T01:20:46.671Z,54.22
2023-03-28T01:21:46.842Z,56.13
2023-03-28T01:22:57.270Z,56.85
2023-03-28T01:23:47.634Z,61.01
2023-03-28T01:24:46.564Z,53.43
2023-03-28T01:25:46.548Z,50.62
2023-03-28T01:26:46.548Z,52.30
2023-03-28T01:27:46.522Z,54.75
2023-03-28T01:28:46.597Z,59.63
2023-03-28T01:29:46.516Z,53.70
2023-03-28T01:30:46.475Z,41.21
2023-03-28T01:31:47.137Z,54.02
2023-03-28T01:32:46.466Z,53.00
2023-03-28T01:33:46.508Z,52.86
2023-03-28T01:34:46.477Z,44.58
2023-03-28T01:35:46.506Z,53.87
2023-03-28T01:36:46.438Z,59.05
2023-03-28T01:37:46.461Z,57.90
2023-03-28T01:38:46.410Z,51.41
2023-03-28T01:39:46.464Z,47.20
2023-03-28T01:40:46.385Z,44.66
2023-03-28T01:41:46.370Z,41.30
2023-03-28T01:42:46.367Z,49.72
2023-03-28T01:43:46.363Z,55.15
2023-03-28T01:44:46.411Z,57.53
2023-03-28T01:45:46.374Z,46.60
2023-03-28T01:46:46.350Z,57.76
2023-03-28T01:47:46.403Z,56.91
2023-03-28T01:48:46.320Z,62.46
2023-03-28T01:49:46.306Z,58.77
2023-03-28T01:50:46.317Z,52.30
2023-03-28T01:51:46.299Z,38.24
2023-03-28T01:52:46.263Z,36.00
2023-03-28T01:53:46.256Z,57.15
2023-03-28T01:54:46.261Z,47.44
2023-03-28T01:55:46.255Z,40.09
2023-03-28T01:56:46.272Z,42.34
2023-03-28T01:57:46.439Z,51.33
2023-03-28T01:58:46.228Z,49.93
2023-03-28T01:59:46.222Z,41.08
2023-03-28T02:00:46.314Z,58.02
2023-03-28T02:01:46.177Z,60.20
2023-03-28T02:02:46.173Z,53.89
2023-03-28T02:03:46.186Z,55.83
2023-03-28T02:04:46.170Z,55.45
2023-03-28T02:05:46.138Z,56.12
2023-03-28T02:06:46.118Z,55.57
2023-03-28T02:07:46.126Z,51.66
2023-03-28T02:08:46.109Z,58.59
2023-03-28T02:09:46.189Z,54.78
2023-03-28T02:10:46.092Z,50.25
2023-03-28T02:11:46.118Z,56.48
2023-03-28T02:12:46.072Z,58.44
2023-03-28T02:13:46.079Z,54.59
2023-03-28T02:14:46.078Z,51.81
2023-03-28T02:15:46.028Z,40.60
2023-03-28T02:16:46.215Z,58.94
2023-03-28T02:17:46.075Z,53.06
2023-03-28T02:18:46.027Z,60.06
2023-03-28T02:19:46.065Z,53.65
2023-03-28T02:20:45.986Z,58.66
2023-03-28T02:21:46.053Z,52.87
2023-03-28T02:22:45.992Z,52.96
2023-03-28T02:23:46.002Z,44.45
2023-03-28T02:24:45.978Z,49.38
2023-03-28T02:25:45.992Z,53.92
2023-03-28T02:26:47.763Z,51.21
2023-03-28T02:27:45.924Z,44.25
2023-03-28T02:28:45.932Z,57.15
2023-03-28T02:29:45.950Z,57.75
2023-03-28T02:30:45.919Z,53.52
2023-03-28T02:31:45.877Z,49.21
2023-03-28T02:32:45.942Z,53.64
2023-03-28T02:33:45.881Z,51.86
2023-03-28T02:34:45.901Z,48.31
2023-03-28T02:35:45.912Z,49.96
2023-03-28T02:36:45.860Z,56.70
2023-03-28T02:37:45.832Z,53.87
2023-03-28T02:38:45.847Z,38.85
2023-03-28T02:39:45.816Z,56.18
2023-03-28T02:40:45.789Z,55.64
2023-03-28T02:41:45.815Z,58.53
2023-03-28T02:42:45.763Z,57.88
2023-03-28T02:43:45.787Z,56.12
2023-03-28T02:44:45.788Z,51.44
2023-03-28T02:45:45.776Z,48.54
2023-03-28T02:46:45.734Z,47.59
2023-03-28T02:47:45.804Z,59.51
2023-03-28T02:48:45.763Z,55.20
2023-03-28T02:49:50.351Z,52.73
2023-03-28T02:50:47.845Z,57.21
2023-03-28T02:51:45.696Z,59.36
2023-03-28T02:52:45.673Z,51.65
2023-03-28T02:53:45.692Z,59.65
2023-03-28T02:54:45.682Z,54.88
2023-03-28T02:55:45.693Z,58.29
2023-03-28T02:56:45.654Z,60.32
2023-03-28T02:57:45.673Z,58.29
2023-03-28T02:58:45.631Z,58.50
2023-03-28T02:59:45.633Z,52.02
2023-03-28T03:00:45.744Z,56.56
2023-03-28T03:01:45.643Z,52.28
2023-03-28T03:02:45.597Z,57.16
2023-03-28T03:03:45.635Z,61.63
2023-03-28T03:04:45.568Z,59.13
2023-03-28T03:05:45.559Z,60.02
2023-03-28T03:06:45.591Z,63.80
2023-03-28T03:07:45.666Z,64.87
2023-03-28T03:08:45.549Z,57.31
2023-03-28T03:09:45.900Z,57.56
2023-03-28T03:10:46.536Z,55.33
2023-03-28T03:11:45.568Z,58.89
2023-03-28T03:12:45.619Z,55.73
2023-03-28T03:13:45.478Z,57.74
2023-03-28T03:14:45.539Z,57.34
2023-03-28T03:15:45.538Z,59.06
2023-03-28T03:16:45.450Z,60.56
2023-03-28T03:17:45.520Z,58.95
2023-03-28T03:18:45.448Z,57.86
2023-03-28T03:19:45.553Z,60.08
2023-03-28T03:20:45.425Z,61.92
2023-03-28T03:21:45.614Z,59.35
2023-03-28T03:22:45.412Z,58.55
2023-03-28T03:23:45.426Z,61.02
2023-03-28T03:24:45.376Z,63.72
2023-03-28T03:25:45.441Z,59.15
2023-03-28T03:26:45.431Z,61.02
2023-03-28T03:27:45.350Z,59.47
2023-03-28T03:28:45.316Z,59.57
2023-03-28T03:29:45.353Z,59.64
2023-03-28T03:30:45.352Z,57.03
2023-03-28T03:31:45.390Z,61.48
2023-03-28T03:32:45.350Z,60.96
2023-03-28T03:33:45.306Z,61.07
2023-03-28T03:34:45.336Z,60.05
2023-03-28T03:35:45.286Z,60.88
2023-03-28T03:36:45.253Z,58.08
2023-03-28T03:37:45.263Z,62.65
2023-03-28T03:38:45.262Z,63.46
2023-03-28T03:39:45.261Z,59.11
2023-03-28T03:40:45.255Z,60.82
2023-03-28T03:41:45.237Z,62.63
2023-03-28T03:42:46.012Z,60.17
2023-03-28T03:43:47.164Z,60.86
2023-03-28T03:44:46.220Z,60.86
2023-03-28T03:45:45.241Z,59.93
2023-03-28T03:46:45.243Z,63.36
2023-03-28T03:47:45.253Z,63.39
2023-03-28T03:48:50.048Z,60.37
2023-03-28T03:49:46.174Z,62.74
2023-03-28T03:50:45.177Z,61.11
2023-03-28T03:51:45.149Z,61.89
2023-03-28T03:52:45.136Z,59.48
2023-03-28T03:53:45.121Z,60.71
2023-03-28T03:54:45.106Z,57.57
2023-03-28T03:55:45.102Z,61.88
2023-03-28T03:56:45.114Z,61.54
2023-03-28T03:57:45.079Z,59.40
2023-03-28T03:58:45.063Z,59.34
2023-03-28T03:59:45.053Z,58.75
2023-03-28T04:00:45.015Z,59.71
2023-03-28T04:01:45.052Z,62.89
2023-03-28T04:02:45.090Z,59.08
2023-03-28T04:03:45.082Z,63.35
2023-03-28T04:04:45.015Z,61.57
2023-03-28T04:05:45.037Z,60.95
2023-03-28T04:06:45.005Z,63.41
2023-03-28T04:07:44.992Z,64.10
2023-03-28T04:08:44.935Z,59.95
2023-03-28T04:09:45.087Z,60.86
2023-03-28T04:10:46.844Z,58.90
2023-03-28T04:11:45.006Z,62.26
2023-03-28T04:12:44.933Z,63.49
2023-03-28T04:13:44.959Z,61.11
2023-03-28T04:14:44.973Z,61.21
2023-03-28T04:15:45.003Z,61.99
2023-03-28T04:16:45.155Z,62.04
2023-03-28T04:17:44.905Z,62.37
2023-03-28T04:18:44.826Z,63.46
2023-03-28T04:19:44.876Z,63.85
2023-03-28T04:20:44.863Z,64.24
2023-03-28T04:21:44.862Z,63.25
2023-03-28T04:22:46.391Z,62.88
2023-03-28T04:23:44.857Z,61.92
2023-03-28T04:24:44.841Z,64.27
2023-03-28T04:25:44.808Z,64.76
2023-03-28T04:26:44.759Z,63.57
2023-03-28T04:27:44.815Z,64.55
2023-03-28T04:28:44.850Z,63.96
2023-03-28T04:29:44.752Z,62.95
2023-03-28T04:30:44.755Z,63.03
2023-03-28T04:31:44.782Z,65.46
2023-03-28T04:32:44.778Z,64.22
2023-03-28T04:33:44.735Z,63.98
2023-03-28T04:34:44.712Z,63.71
2023-03-28T04:35:44.790Z,63.55
2023-03-28T04:36:44.689Z,63.94
2023-03-28T04:37:44.677Z,64.85
2023-03-28T04:38:44.702Z,62.56
2023-03-28T04:39:44.644Z,66.09
2023-03-28T04:40:44.697Z,64.08
2023-03-28T04:41:44.707Z,63.03
2023-03-28T04:42:44.650Z,63.34
2023-03-28T04:43:44.622Z,65.29
2023-03-28T04:44:44.595Z,64.54
2023-03-28T04:45:44.704Z,64.09
2023-03-28T04:46:44.640Z,64.42
2023-03-28T04:47:44.605Z,65.60
2023-03-28T04:48:44.557Z,65.34
2023-03-28T04:49:44.596Z,64.61
2023-03-28T04:50:44.598Z,67.08
2023-03-28T04:51:44.526Z,66.74
2023-03-28T04:52:44.514Z,66.76
2023-03-28T04:53:44.673Z,65.53
2023-03-28T04:54:44.519Z,64.13
2023-03-28T04:55:44.571Z,67.25
2023-03-28T04:56:44.545Z,68.43
2023-03-28T04:57:44.501Z,63.94
2023-03-28T04:58:44.496Z,64.85
2023-03-28T04:59:44.469Z,65.43
2023-03-28T05:00:44.492Z,62.69
2023-03-28T05:01:44.506Z,64.85
2023-03-28T05:02:44.603Z,62.40
2023-03-28T05:03:44.452Z,65.26
2023-03-28T05:04:44.423Z,64.02
2023-03-28T05:05:44.456Z,64.62
2023-03-28T05:06:44.410Z,63.41
2023-03-28T05:07:44.454Z,66.26
2023-03-28T05:08:44.394Z,64.15
2023-03-28T05:09:44.375Z,63.64
2023-03-28T05:10:44.391Z,64.14
2023-03-28T05:11:44.367Z,63.32
2023-03-28T05:12:45.008Z,63.85
2023-03-28T05:13:44.300Z,62.67
2023-03-28T05:14:44.314Z,63.98
2023-03-28T05:15:44.326Z,62.23
2023-03-28T05:16:44.328Z,64.29
2023-03-28T05:17:44.385Z,63.34
2023-03-28T05:18:44.257Z,64.05
2023-03-28T05:19:44.337Z,61.47
2023-03-28T05:20:44.264Z,65.18
2023-03-28T05:21:44.275Z,64.86
2023-03-28T05:22:44.246Z,64.43
2023-03-28T05:23:44.231Z,61.64
2023-03-28T05:24:45.220Z,62.82
2023-03-28T05:25:44.217Z,63.91
2023-03-28T05:26:44.196Z,63.45
2023-03-28T05:27:44.170Z,63.63
2023-03-28T05:28:44.184Z,62.19
2023-03-28T05:29:44.158Z,62.08
2023-03-28T05:30:44.164Z,63.78
2023-03-28T05:31:44.201Z,64.24
2023-03-28T05:32:44.159Z,63.75
2023-03-28T05:33:45.113Z,63.56
2023-03-28T05:34:44.140Z,61.26
2023-03-28T05:35:44.145Z,64.49
2023-03-28T05:36:44.110Z,65.54
2023-03-28T05:37:46.254Z,63.88
2023-03-28T05:38:45.068Z,64.01
2023-03-28T05:39:44.044Z,63.66
2023-03-28T05:40:44.145Z,62.93
2023-03-28T05:41:44.067Z,65.60
2023-03-28T05:42:44.058Z,63.05
2023-03-28T05:43:44.030Z,60.18
2023-03-28T05:44:44.034Z,64.60
2023-03-28T05:45:44.063Z,66.41
2023-03-28T05:46:44.000Z,64.74
2023-03-28T05:47:43.999Z,63.14
2023-03-28T05:48:44.024Z,64.47
2023-03-28T05:49:45.012Z,64.78
2023-03-28T05:50:44.003Z,64.44
2023-03-28T05:51:43.988Z,62.89
2023-03-28T05:52:43.948Z,65.57
2023-03-28T05:53:43.939Z,64.65
2023-03-28T05:54:50.911Z,62.42
2023-03-28T05:55:44.959Z,62.55
2023-03-28T05:56:44.046Z,63.03
2023-03-28T05:57:43.908Z,62.21
2023-03-28T05:58:43.903Z,63.07
2023-03-28T05:59:43.880Z,62.13
2023-03-28T06:00:43.875Z,62.00
2023-03-28T06:01:43.881Z,63.23
2023-03-28T06:02:43.885Z,61.40
2023-03-28T06:03:44.466Z,62.49
2023-03-28T06:04:43.925Z,63.03
2023-03-28T06:05:43.822Z,63.09
2023-03-28T06:06:43.802Z,59.75
2023-03-28T06:07:43.803Z,62.04
2023-03-28T06:08:43.791Z,60.47
2023-03-28T06:09:43.766Z,60.73
2023-03-28T06:10:43.819Z,61.46
2023-03-28T06:11:43.795Z,62.13
2023-03-28T06:12:43.774Z,61.99
2023-03-28T06:13:43.770Z,63.19
2023-03-28T06:14:43.716Z,62.18
2023-03-28T06:15:43.708Z,63.16
2023-03-28T06:16:43.832Z,62.91
2023-03-28T06:17:43.749Z,63.98
2023-03-28T06:18:43.685Z,61.75
2023-03-28T06:38:04.777Z,61.19
2023-03-28T06:39:04.560Z,59.18
2023-03-28T06:40:04.434Z,60.57
2023-03-28T06:41:04.381Z,61.25
2023-03-28T06:42:04.377Z,60.89
2023-03-28T06:43:04.412Z,61.28
2023-03-28T06:44:04.350Z,62.06
2023-03-28T06:45:04.450Z,61.46
2023-03-28T06:46:04.411Z,60.03
2023-03-28T06:47:04.351Z,60.89
2023-03-28T06:48:04.362Z,59.52
2023-03-28T06:49:04.315Z,58.38
2023-03-28T06:50:04.295Z,60.24
2023-03-28T06:51:04.321Z,62.21
2023-03-28T06:52:04.254Z,72.32
2023-03-28T06:53:04.294Z,59.48
2023-03-28T06:54:04.911Z,57.84
2023-03-28T06:55:04.232Z,60.75
2023-03-28T06:56:04.297Z,60.20
2023-03-28T06:57:04.289Z,59.25
2023-03-28T06:58:04.195Z,58.57
2023-03-28T06:59:04.249Z,60.72
2023-03-28T07:00:04.185Z,58.22
2023-03-28T07:01:04.236Z,56.05
2023-03-28T07:02:04.335Z,56.84
2023-03-28T07:03:04.226Z,57.79
2023-03-28T07:04:04.328Z,56.21
2023-03-28T07:05:04.153Z,54.90
2023-03-28T07:06:04.194Z,59.20
2023-03-28T07:07:04.440Z,56.43
2023-03-28T07:08:04.125Z,58.08
2023-03-28T07:09:06.166Z,58.73
2023-03-28T07:10:05.081Z,57.16
2023-03-28T07:11:04.148Z,54.95
2023-03-28T07:12:04.077Z,56.74
2023-03-28T07:13:04.091Z,55.72
2023-03-28T07:14:04.049Z,56.99
2023-03-28T07:15:04.020Z,59.57
2023-03-28T07:16:04.108Z,60.92
2023-03-28T07:17:04.052Z,54.58
2023-03-28T07:18:04.099Z,57.79
2023-03-28T07:19:04.046Z,58.65
2023-03-28T07:20:04.017Z,61.60
2023-03-28T07:21:04.632Z,60.30
2023-03-28T07:22:05.006Z,58.88
2023-03-28T07:23:03.990Z,60.81
2023-03-28T07:24:04.016Z,62.08
2023-03-28T07:25:03.940Z,60.64
2023-03-28T07:26:03.991Z,56.73
2023-03-28T07:27:14.804Z,58.66
2023-03-28T07:28:05.926Z,57.73
2023-03-28T07:29:03.943Z,61.28
2023-03-28T07:30:03.920Z,59.37
2023-03-28T07:31:03.938Z,63.39
2023-03-28T07:32:03.884Z,60.31
2023-03-28T07:33:16.693Z,60.06
2023-03-28T07:34:04.952Z,63.80
2023-03-28T07:35:03.858Z,62.56
2023-03-28T07:36:03.921Z,63.11
2023-03-28T07:37:03.851Z,63.18
2023-03-28T07:38:03.818Z,60.33
2023-03-28T07:39:03.804Z,61.52
2023-03-28T07:40:03.814Z,62.48
2023-03-28T07:41:03.825Z,62.77
2023-03-28T07:42:03.798Z,64.27
2023-03-28T07:43:03.814Z,60.44
2023-03-28T07:44:03.768Z,62.07
2023-03-28T07:45:04.367Z,64.65
2023-03-28T07:46:03.785Z,62.78
2023-03-28T07:47:04.768Z,61.77
2023-03-28T07:48:03.763Z,62.56
2023-03-28T07:49:03.703Z,60.56
2023-03-28T07:50:03.705Z,60.71
2023-03-28T07:51:03.689Z,60.86
2023-03-28T07:52:03.783Z,61.51
2023-03-28T07:53:03.683Z,62.25
2023-03-28T07:54:03.651Z,60.28
2023-03-28T07:55:03.682Z,63.68
2023-03-28T07:56:03.666Z,61.51
2023-03-28T07:57:03.705Z,56.84
2023-03-28T07:58:03.614Z,61.40
2023-03-28T07:59:03.624Z,61.59
2023-03-28T08:00:03.595Z,61.53
2023-03-28T08:01:03.581Z,60.04
2023-03-28T08:02:03.593Z,61.78
2023-03-28T08:03:03.666Z,57.93
2023-03-28T08:04:03.803Z,59.73
2023-03-28T08:05:03.590Z,62.73
2023-03-28T08:06:03.564Z,61.88
2023-03-28T08:07:03.638Z,60.64
2023-03-28T08:08:03.543Z,60.86
2023-03-28T08:09:03.505Z,61.01
2023-03-28T08:10:03.585Z,62.14
2023-03-28T08:11:03.525Z,62.67
2023-03-28T08:12:03.530Z,63.29
2023-03-28T08:13:03.531Z,62.52
2023-03-28T08:14:03.480Z,61.55
2023-03-28T08:15:03.506Z,63.30
2023-03-28T08:16:03.504Z,64.59
2023-03-28T08:17:03.497Z,56.84
2023-03-28T08:18:03.475Z,57.75
2023-03-28T08:19:10.753Z,61.37
2023-03-28T08:20:05.387Z,58.29
2023-03-28T08:21:03.844Z,62.04
2023-03-28T08:22:04.410Z,66.56
2023-03-28T08:23:03.395Z,63.42
2023-03-28T08:24:03.399Z,74.30
2023-03-28T08:25:03.382Z,61.09
2023-03-28T08:26:04.361Z,60.71
2023-03-28T08:27:03.354Z,60.60
2023-03-28T08:28:03.324Z,62.88
2023-03-28T08:29:03.375Z,63.15
2023-03-28T08:30:03.296Z,61.57
2023-03-28T08:31:03.709Z,63.06
2023-03-28T08:32:03.328Z,59.92
2023-03-28T08:33:04.349Z,60.80
2023-03-28T08:34:03.289Z,60.38
2023-03-28T08:35:03.290Z,60.66
2023-03-28T08:36:03.313Z,62.36
2023-03-28T08:37:03.250Z,58.72
2023-03-28T08:38:03.213Z,61.56
2023-03-28T08:39:03.234Z,62.78
2023-03-28T08:40:03.238Z,63.61
2023-03-28T08:41:03.390Z,64.84
2023-03-28T08:42:04.235Z,63.39
2023-03-28T08:43:03.235Z,65.58
2023-03-28T08:44:03.211Z,63.28
2023-03-28T08:45:03.223Z,62.05
2023-03-28T08:46:03.233Z,61.24
2023-03-28T08:47:03.286Z,71.48
2023-03-28T08:48:03.217Z,61.80
2023-03-28T08:49:03.129Z,63.53
2023-03-28T08:50:03.116Z,60.39
2023-03-28T08:51:03.480Z,66.15
2023-03-28T08:52:03.094Z,62.30
2023-03-28T08:53:03.095Z,61.84
2023-03-28T08:54:03.190Z,61.86
2023-03-28T08:55:03.068Z,60.28
2023-03-28T08:56:03.041Z,58.62
2023-03-28T08:57:03.147Z,56.81
2023-03-28T08:58:03.030Z,60.02
2023-03-28T08:59:03.904Z,58.47
2023-03-28T09:00:03.023Z,59.52
2023-03-28T09:01:03.414Z,60.77
2023-03-28T09:02:03.098Z,59.13
2023-03-28T09:03:03.056Z,55.97
2023-03-28T09:04:03.268Z,59.99
2023-03-28T09:05:17.721Z,59.16
2023-03-28T09:06:04.960Z,61.26
2023-03-28T09:07:02.922Z,59.44
2023-03-28T09:08:02.916Z,59.07
2023-03-28T09:09:02.928Z,60.96
2023-03-28T09:10:03.881Z,64.42
2023-03-28T09:11:02.968Z,60.39
2023-03-28T09:12:02.961Z,61.15
2023-03-28T09:13:02.910Z,64.35
2023-03-28T09:14:03.942Z,63.03
2023-03-28T09:15:02.850Z,65.39
2023-03-28T09:16:02.903Z,60.95
2023-03-28T09:17:03.001Z,65.41
2023-03-28T09:18:02.858Z,62.56
2023-03-28T09:19:02.880Z,63.98
2023-03-28T09:20:02.785Z,60.72
2023-03-28T09:21:02.997Z,61.19
2023-03-28T09:22:14.786Z,59.02
2023-03-28T09:23:04.790Z,61.28
2023-03-28T09:24:02.792Z,59.25
2023-03-28T09:25:02.803Z,58.68
2023-03-28T09:26:02.735Z,60.44
2023-03-28T09:27:02.781Z,62.64
2023-03-28T09:28:02.749Z,61.36
2023-03-28T09:29:02.768Z,57.23
2023-03-28T09:30:02.746Z,59.50
2023-03-28T09:31:03.270Z,62.57
2023-03-28T09:32:02.714Z,58.65
2023-03-28T09:33:02.790Z,61.03
2023-03-28T09:34:02.673Z,62.73
2023-03-28T09:35:02.633Z,62.41
2023-03-28T09:36:02.811Z,62.01
2023-03-28T09:37:02.660Z,58.28
2023-03-28T09:38:02.650Z,57.30
2023-03-28T09:39:02.640Z,59.64
2023-03-28T09:40:02.579Z,56.05
2023-03-28T09:41:02.911Z,57.08
2023-03-28T09:42:02.589Z,62.91
2023-03-28T09:43:02.604Z,61.59
2023-03-28T09:44:02.578Z,63.53
2023-03-28T09:45:02.556Z,61.79
2023-03-28T09:46:02.591Z,60.21
2023-03-28T09:47:02.561Z,62.39
2023-03-28T09:48:02.659Z,61.84
2023-03-28T09:49:02.620Z,63.17
2023-03-28T09:50:12.508Z,61.53
2023-03-28T09:51:04.472Z,60.40
2023-03-28T09:52:02.542Z,59.81
2023-03-28T09:53:02.461Z,60.38
2023-03-28T09:54:02.480Z,70.57
2023-03-28T09:55:02.449Z,61.43
2023-03-28T09:56:04.741Z,59.35
2023-03-28T09:57:03.475Z,59.68
2023-03-28T09:58:02.480Z,58.61
2023-03-28T09:59:02.431Z,63.08
2023-03-28T10:00:02.416Z,60.21
2023-03-28T10:01:02.702Z,60.73
2023-03-28T10:02:02.463Z,62.01
2023-03-28T10:03:02.469Z,57.99
2023-03-28T10:04:02.434Z,56.54
2023-03-28T10:05:04.720Z,59.62
2023-03-28T10:06:02.336Z,62.55
2023-03-28T10:07:02.373Z,59.22
2023-03-28T10:08:02.435Z,62.97
2023-03-28T10:09:02.320Z,60.00
2023-03-28T10:10:02.356Z,64.10
2023-03-28T10:11:02.463Z,58.90
2023-03-28T10:12:02.327Z,60.58
2023-03-28T10:13:02.338Z,59.18
2023-03-28T10:14:02.311Z,59.09
2023-03-28T10:15:02.289Z,63.33
2023-03-28T10:16:02.289Z,58.58
2023-03-28T10:17:02.238Z,63.41
2023-03-28T10:18:02.332Z,57.60
2023-03-28T10:19:02.204Z,62.48
2023-03-28T10:20:02.201Z,60.68
2023-03-28T10:21:02.200Z,60.23
2023-03-28T10:22:02.203Z,60.57
2023-03-28T10:23:04.386Z,59.69
2023-03-28T10:24:03.212Z,58.83
2023-03-28T10:25:02.178Z,58.89
2023-03-28T10:26:02.160Z,54.96
2023-03-28T10:27:02.155Z,60.43
2023-03-28T10:28:02.135Z,56.92
2023-03-28T10:29:04.505Z,59.15
2023-03-28T10:30:03.087Z,58.78
2023-03-28T10:31:02.382Z,56.65
2023-03-28T10:32:02.063Z,57.52
2023-03-28T10:33:02.185Z,57.89
2023-03-28T10:34:02.864Z,56.76
2023-03-28T10:35:02.055Z,57.43
2023-03-28T10:36:02.180Z,57.65
2023-03-28T10:37:02.034Z,58.54
2023-03-28T10:38:02.013Z,57.12
2023-03-28T10:39:02.063Z,59.00
2023-03-28T10:40:02.049Z,61.25
2023-03-28T10:41:02.419Z,61.42
2023-03-28T10:42:02.001Z,60.59
2023-03-28T10:43:02.019Z,61.35
2023-03-28T10:44:01.961Z,58.30
2023-03-28T10:45:02.028Z,62.90
2023-03-28T10:46:02.022Z,59.26
2023-03-28T10:47:01.952Z,62.76
2023-03-28T10:48:02.048Z,57.09
2023-03-28T10:49:01.990Z,57.33
2023-03-28T10:50:02.142Z,57.28
2023-03-28T10:51:02.096Z,58.82
2023-03-28T10:52:01.886Z,61.56
2023-03-28T10:53:01.903Z,59.45
2023-03-28T10:54:01.854Z,60.61
2023-03-28T10:55:01.905Z,60.99
2023-03-28T10:56:01.868Z,60.15
2023-03-28T10:57:01.925Z,55.10
2023-03-28T10:58:01.900Z,56.50
2023-03-28T10:59:01.812Z,58.67
2023-03-28T11:00:01.838Z,58.52
2023-03-28T11:01:01.972Z,60.08
2023-03-28T11:02:01.866Z,56.73
2023-03-28T11:03:01.930Z,57.54
2023-03-28T11:04:02.041Z,60.89
2023-03-28T11:05:01.749Z,56.86
2023-03-28T11:06:09.421Z,58.85
2023-03-28T11:07:03.764Z,60.57
2023-03-28T11:08:01.897Z,60.57
2023-03-28T11:09:01.772Z,59.13
2023-03-28T11:22:36.355Z,60.06
2023-03-28T11:23:38.039Z,60.94
2023-03-28T11:24:36.337Z,60.63
2023-03-28T11:25:36.339Z,57.36
2023-03-28T11:26:36.182Z,58.96
2023-03-28T11:27:36.230Z,57.75
2023-03-28T11:28:37.369Z,61.98
2023-03-28T11:29:43.183Z,58.59
2023-03-28T11:30:39.905Z,57.92
2023-03-28T11:31:37.331Z,54.56
2023-03-28T11:32:37.359Z,60.11
2023-03-28T11:33:37.265Z,59.40
2023-03-28T11:34:37.271Z,58.30
2023-03-28T11:35:37.325Z,60.01
2023-03-28T11:36:37.223Z,58.56
2023-03-28T11:37:38.137Z,58.34
2023-03-28T11:38:37.190Z,57.43
2023-03-28T11:39:37.174Z,60.34
2023-03-28T11:40:37.175Z,59.89
2023-03-28T11:41:37.133Z,59.67
2023-03-28T11:42:37.161Z,59.78
2023-03-28T11:43:37.114Z,57.16
2023-03-28T11:44:37.119Z,59.92
2023-03-28T11:45:50.142Z,60.41
2023-03-28T11:46:39.892Z,59.63
2023-03-28T11:47:37.155Z,58.28
2023-03-28T11:48:37.062Z,60.20
2023-03-28T11:49:37.076Z,60.17
2023-03-28T11:50:37.063Z,58.37
2023-03-28T11:51:37.792Z,60.52
2023-03-28T11:52:37.096Z,61.27
2023-03-28T12:01:05.059Z,58.42
2023-03-28T12:02:06.357Z,59.20
2023-03-28T12:03:06.115Z,56.58
2023-03-28T12:04:06.046Z,54.90
2023-03-28T12:05:05.957Z,56.41
2023-03-28T12:06:07.255Z,59.16
2023-03-28T12:07:05.955Z,59.07
2023-03-28T12:08:05.909Z,57.54
2023-03-28T12:09:05.934Z,59.89
2023-03-28T12:10:05.931Z,60.82
2023-03-28T12:11:06.059Z,60.75
2023-03-28T12:12:05.890Z,62.80
2023-03-28T12:13:06.078Z,58.18
2023-03-28T12:14:12.157Z,56.49
2023-03-28T12:15:07.902Z,53.85
2023-03-28T12:16:05.836Z,58.09
2023-03-28T12:17:05.910Z,60.91
2023-03-28T12:18:05.955Z,59.53
2023-03-28T12:19:05.857Z,59.06
2023-03-28T12:20:05.828Z,61.10
2023-03-28T12:21:05.819Z,59.12
2023-03-28T12:22:05.774Z,56.07
2023-03-28T12:23:05.978Z,58.14
2023-03-28T12:24:05.764Z,60.32
2023-03-28T12:25:05.829Z,56.55
2023-03-28T12:26:05.765Z,56.74
2023-03-28T12:27:06.756Z,60.62
2023-03-28T12:28:05.852Z,61.14
2023-03-28T12:29:05.689Z,59.90
2023-03-28T12:30:05.756Z,61.21
2023-03-28T12:31:05.735Z,60.61
2023-03-28T12:32:05.678Z,61.27
2023-03-28T12:33:05.816Z,62.07
2023-03-28T12:34:05.658Z,58.14
2023-03-28T12:35:05.703Z,60.55
2023-03-28T12:36:05.802Z,61.33
2023-03-28T12:37:06.251Z,58.85
2023-03-28T12:38:05.841Z,58.97
2023-03-28T12:39:05.715Z,57.28
2023-03-28T12:40:05.773Z,59.69
2023-03-28T12:41:05.569Z,59.39
2023-03-28T12:42:05.610Z,60.68
2023-03-28T12:43:05.612Z,58.83
2023-03-28T12:44:05.716Z,61.73
2023-03-28T12:45:05.600Z,59.48
2023-03-28T12:46:05.660Z,59.42
2023-03-28T12:47:05.619Z,60.77
2023-03-28T12:48:05.903Z,60.35
2023-03-28T12:55:38.616Z,61.59
2023-03-28T12:56:38.477Z,61.32
2023-03-28T12:57:38.912Z,61.46
2023-03-28T12:58:38.418Z,61.17
2023-03-28T12:59:38.356Z,57.80
2023-03-28T13:00:38.350Z,59.94
2023-03-28T13:01:39.646Z,60.24
2023-03-28T13:02:39.637Z,59.37
2023-03-28T13:03:39.574Z,61.24
2023-03-28T13:04:39.588Z,60.79
2023-03-28T13:05:39.534Z,59.84
2023-03-28T13:06:39.706Z,58.25
2023-03-28T13:07:39.497Z,58.68
2023-03-28T13:08:39.523Z,59.37
2023-03-28T13:09:39.497Z,58.66
2023-03-28T13:10:39.499Z,59.38
2023-03-28T13:11:39.474Z,60.02
2023-03-28T13:12:39.558Z,58.80
2023-03-28T13:13:39.418Z,60.26
2023-03-28T13:14:39.407Z,57.77
2023-03-28T13:15:39.422Z,59.46
2023-03-28T13:16:39.425Z,56.63
2023-03-28T13:17:39.491Z,58.19
2023-03-28T13:18:43.171Z,59.79
2023-03-28T13:19:40.403Z,56.99
2023-03-28T13:20:39.362Z,59.15
2023-03-28T13:21:39.368Z,56.02
2023-03-28T13:22:39.340Z,59.49
2023-03-28T13:23:39.338Z,60.16
2023-03-28T13:24:39.294Z,56.30
2023-03-28T13:25:39.326Z,57.39
2023-03-28T13:26:39.277Z,58.51
2023-03-28T13:27:39.337Z,61.09
2023-03-28T13:28:39.303Z,61.14
2023-03-28T13:29:39.399Z,58.26
2023-03-28T13:30:39.255Z,59.28
2023-03-28T13:31:39.240Z,58.66
2023-03-28T13:32:39.311Z,58.38
2023-03-28T13:33:39.220Z,59.03
2023-03-28T13:34:39.488Z,62.40
2023-03-28T13:35:39.290Z,61.23
2023-03-28T13:36:40.122Z,61.16
2023-03-28T13:37:39.188Z,59.46